Airfield :
LOGIN :

Register | Disclaimer

   EN    FR    IT 

 










Legend :    VFR   Marginal VFR   IFR   Intensive IFR   Very Intensive IFR
Visi :
Ceiling :
>= 8 km
>= 3000ft
5 to 8 km
1000 to 3000 ft
1500m to 5 km
500 to 1000 ft
800 to 1500m
200 to 500 ft
< 800m
< 200 ft
Symbols :   Thunderstorms  Fog  Heavy snow  Heavy precipitations  Wind > 20 kt
SIGMETs :     Misc.  Thunderstorms  Icing  Turbulence  Mountain Waves  Volcanic Ashes







- Airport Elevation : 1682 ft
- IATA code : VIT


LEVT - Vitoria Gasteiz

CURRENT METAR :
  • 250830Z 33005KT 300V010 9999 FEW008 OVC015 13/11 Q1022

EXPIRED METARs :
  • 250800Z 02004KT 340V050 9999 FEW006 BKN012 OVC023 13/11 Q1022
  • 250730Z 36006KT 330V030 9999 FEW005 BKN012 OVC023 13/11 Q1022
  • 250700Z 36006KT 9999 FEW004 BKN011 OVC020 13/11 Q1022
  • 250630Z 01007KT 9999 FEW004 OVC015 12/11 Q1021
  • 250600Z 36007KT 9000 FEW005 OVC016 13/11 Q1021

TAF COR TAF LEVT
Valid from the 25 at 06:00 until the 26 at 06:00 UTC


250539Z 2506/2606 03007KT 9999 BKN016 TX23/2514Z TN10/2506Z
TEMPO 2506/2602 BKN010
TEMPO 2506/2524 BKN008
TEMPO 2506/2508 3000 BR BKN005
PROB30
TEMPO 2506/2508 1500 BR BCFG BKN002
TEMPO 2522/2604 3000 -RA BKN008
No reported NOTAMs for that airfield.



MET'MAP, your aeronautical weather chart ! - Copyright ORBIFLY December 2007 - Disclaimer

ORBIFLY MET'MAP TEAM :

Programming & Development : Alexandra Zaïnal
Concept & Development : Baudouin d'Aumeries
Co-Development & Prog : Marc-Olivier Méhu
Technical & hardware support : Manuel Goepfert

Contact : metmap@orbifly.com




SOURCES & CREDITS :

   NOAA